Accueil
METAR-TAF:

METAR-TAF

Aéroports :

Alpnach, Suisse

latitude: 46-56-19N, longitude: 8-17-03E, altitude: 440 m

Observation

Le bulletin a été fait il y a 12 minutes, à 01:20 UTC
Vent 8 kt de sud/sud-ouest, variant entre sud et sud-ouest
Température 6°C
Humidité 81%
Pression 1021 hPa
Visibilité 10 km ou plus
Quelques nuages à une hauteur de 2400 ft
Nuages fragmentés à une hauteur de 3300 ft
Nuages fragmentés à une hauteur de 3900 ft
faibles averses de pluie

METAR: LSMA 100120Z AUTO 20008KT 170V230 9999NDV -SHRA FEW024 BKN033 BKN039 06/03 Q1021 RMK

Heure: 02:32 (01:32 UTC)


TAF: absent

Observations et prévisions météorologiques de plus de 4000 aéroports (messages METAR et TAF).

Les stations disponibles sont représentées par des disques jaunes et rouges sur la carte.

Passer la souris dessus pour voir le nom de la station.

Cliquer dessus pour voir les observations et prévisions météorologiques.

Pour changer de carte: cliquez sur les boutons verts avec une croix noire pour zoomer, sur le bouton vert avec un tiret pour effectuer un zoom arrière, ou sur les flèches vertes pour les cartes adjacentes.


METAR-TAF: